Sainte-Marie, Canada
Current Conditions -  °F | °C
As of 3:51 PM on Thursday 23 Oct 2014 (Local Time) from CYQB Reporting Station
Rain Showers Rain Showers  
Wind Chill: 38°   Ceiling: 8500
Heat Index: 45°   Visibility: 15mi
Dew Point: 39°   Wind: 13mph
Humidity: 81%   Direction: 60°ENE
Pressure: 30.06"   Gusts: 22mph
Location:  46.43°N, 71.02°W
Report Text: CYQB 231951Z 06011G19KT 15SM -SHRA FEW025 OVC085 07/04 A3006 RMK SC1AC8 SC TR SLP180
Loading
Personal Weather Stations






























Interactive Weather Map
Tropical Storm Tracking
New forecast layout! Learn more

10-Day Weather Forecast

Advertisements
Track Severe Weather on mobile